This is the latest recevied weather packets stored in our database for station/object K6MBY. If no packets are shown the sender has not sent any weather packets the latest 1 day(s).
| Time | Temp. | Humidity | Pressure | Rain* | Wind** | Luminosity | Snow |
|---|---|---|---|---|---|---|---|
| 1778014046 | 14.44° C | 81% | 1019.7 hPa | 0 mm | - | 536 W/m² | - |
| 1778012530 | 13.89° C | 83% | 1019.9 hPa | 0 mm | - | 496 W/m² | - |
| 1778011319 | 14.44° C | 82% | 1019.7 hPa | 0 mm | - | 447 W/m² | - |
| 1778009198 | 13.33° C | 86% | 1019.6 hPa | 0 mm | - | 409 W/m² | - |
| 1778007682 | 12.78° C | 87% | 1019.6 hPa | 0 mm | - | 359 W/m² | - |
| 1778007075 | 12.22° C | 89% | 1019.6 hPa | 0 mm | - | 352 W/m² | - |
| 1778005863 | 12.78° C | 87% | 1019.8 hPa | 0 mm | - | 291 W/m² | - |
| 1778004345 | 12.22° C | 89% | 1019.6 hPa | 0 mm | - | 247 W/m² | - |
| 1778003738 | 12.22° C | 90% | 1019.7 hPa | 0 mm | - | 232 W/m² | - |
| 1778003132 | 11.67° C | 90% | 1019.5 hPa | 0 mm | - | 227 W/m² | - |
| 1778002828 | 11.67° C | 90% | 1019.3 hPa | 0 mm | - | 229 W/m² | - |
| 1778002222 | 11.67° C | 90% | 1019.4 hPa | 0 mm | - | 229 W/m² | - |
| 1778000096 | 11.67° C | 93% | 1019.3 hPa | 0 mm | - | 189 W/m² | - |
| 1777998584 | 11.11° C | 96% | 1019.3 hPa | 0 mm | - | 148 W/m² | - |
| 1777998279 | 11.11° C | 96% | 1019.3 hPa | 0 mm | - | 145 W/m² | - |
| 1777997976 | 11.11° C | 96% | 1019.2 hPa | 0 mm | - | 146 W/m² | - |
| 1777996461 | 11.11° C | 97% | 1019.2 hPa | 0 mm | - | 120 W/m² | - |
| 1777996158 | 11.11° C | 96% | 1019.1 hPa | 0 mm | - | 107 W/m² | - |
| 1777995854 | 10.56° C | 96% | 1019.1 hPa | 0 mm | - | 96 W/m² | - |
| 1777993730 | 10.56° C | 96% | 1018.7 hPa | 0 mm | - | 76 W/m² | - |
* Rain latest hour (hover to see other rain measurements)
** Current wind speed in m/s (hover to see current wind gust speed)